Time;durP1;ratioP1;P1;durP2;ratioP2;P2;SDS_P1;SDS_P2;PMS_P1;PMS_P2;Temp;Humidity;BMP_temperature;BMP_pressure;BME280_temperature;BME280_humidity;BME280_pressure;Samples;Min_cycle;Max_cycle;Signal;HPM_P1;HPM_P2
2021/08/30 00:01:41;;;;;;;23.27;13.68;;;;;;;;;;5131257;27;20090;-85
2021/08/30 00:04:09;;;;;;;26.73;15.00;;;;;;;;;;5097885;28;20319;-85
2021/08/30 00:06:35;;;;;;;22.40;13.65;;;;;;;;;;5099509;28;20181;-85
2021/08/30 00:09:05;;;;;;;24.27;14.90;;;;;;;;;;5098162;28;20079;-85
2021/08/30 00:11:31;;;;;;;23.52;14.40;;;;;;;;;;5101218;28;20052;-85
2021/08/30 00:13:59;;;;;;;20.38;13.63;;;;;;;;;;5099582;28;20435;-85
2021/08/30 00:16:25;;;;;;;20.92;14.27;;;;;;;;;;5137200;27;20114;-85
2021/08/30 00:18:52;;;;;;;19.73;14.07;;;;;;;;;;5114829;28;20056;-85
2021/08/30 00:21:18;;;;;;;18.38;13.20;;;;;;;;;;5106246;28;20059;-85
2021/08/30 00:23:45;;;;;;;21.92;13.90;;;;;;;;;;5100090;28;20114;-85
2021/08/30 00:26:11;;;;;;;23.63;14.95;;;;;;;;;;5132789;27;20109;-86
2021/08/30 00:28:40;;;;;;;19.83;14.32;;;;;;;;;;5099150;28;20048;-85
2021/08/30 00:31:07;;;;;;;24.60;15.02;;;;;;;;;;5097984;28;20131;-85
2021/08/30 00:33:33;;;;;;;29.50;16.13;;;;;;;;;;5097274;28;20062;-86
2021/08/30 00:35:59;;;;;;;24.50;14.40;;;;;;;;;;5097669;28;20075;-85
2021/08/30 00:38:26;;;;;;;20.60;13.68;;;;;;;;;;5098728;28;20151;-85
2021/08/30 00:40:53;;;;;;;20.35;14.18;;;;;;;;;;5099938;28;20135;-85
2021/08/30 00:43:22;;;;;;;25.73;14.82;;;;;;;;;;5101048;28;20058;-85
2021/08/30 00:45:54;;;;;;;21.80;14.77;;;;;;;;;;5103956;28;20032;-85
2021/08/30 00:48:21;;;;;;;22.63;14.68;;;;;;;;;;5116121;28;20050;-85
2021/08/30 00:50:50;;;;;;;22.85;16.00;;;;;;;;;;5148561;27;20104;-85
2021/08/30 00:53:17;;;;;;;21.13;14.68;;;;;;;;;;5104037;28;20475;-86
2021/08/30 00:55:53;;;;;;;21.92;15.32;;;;;;;;;;5101485;28;20044;-86
2021/08/30 00:58:19;;;;;;;27.42;15.00;;;;;;;;;;5100583;28;20150;-85
2021/08/30 01:00:52;;;;;;;19.52;13.48;;;;;;;;;;5102393;28;20063;-86
2021/08/30 01:03:19;;;;;;;24.35;16.13;;;;;;;;;;5101446;28;20063;-86
2021/08/30 01:05:48;;;;;;;22.40;15.65;;;;;;;;;;5134880;27;20047;-85
2021/08/30 01:08:17;;;;;;;21.85;16.10;;;;;;;;;;5100694;28;20078;-85
2021/08/30 01:11:02;;;;;;;21.98;15.10;;;;;;;;;;5100296;28;20116;-85
2021/08/30 01:13:40;;;;;;;22.73;15.37;;;;;;;;;;5099794;28;20056;-86
2021/08/30 01:16:08;;;;;;;25.48;16.45;;;;;;;;;;5135495;27;20135;-85
2021/08/30 01:18:35;;;;;;;22.35;16.40;;;;;;;;;;5102653;28;20078;-85
2021/08/30 01:21:03;;;;;;;23.15;14.95;;;;;;;;;;5103742;28;20120;-85
2021/08/30 01:23:30;;;;;;;22.92;15.27;;;;;;;;;;5065128;28;20050;-86
2021/08/30 01:25:58;;;;;;;23.40;15.48;;;;;;;;;;4999671;28;20133;-84
2021/08/30 01:28:30;;;;;;;21.88;15.52;;;;;;;;;;4999897;28;20057;-85
2021/08/30 01:30:57;;;;;;;23.23;15.52;;;;;;;;;;5012449;28;20041;-85
2021/08/30 01:33:27;;;;;;;21.17;16.10;;;;;;;;;;5015831;28;20038;-84
2021/08/30 01:35:54;;;;;;;24.98;17.10;;;;;;;;;;5012701;28;20058;-85
2021/08/30 01:38:20;;;;;;;22.77;15.70;;;;;;;;;;5004746;28;20054;-85
2021/08/30 01:40:47;;;;;;;26.25;17.52;;;;;;;;;;5004208;28;20057;-84
2021/08/30 01:43:14;;;;;;;28.98;18.10;;;;;;;;;;5002316;28;20046;-85
2021/08/30 01:45:41;;;;;;;26.70;17.52;;;;;;;;;;5003735;28;20069;-85
2021/08/30 01:48:08;;;;;;;26.02;18.10;;;;;;;;;;5001766;28;20107;-84
2021/08/30 01:50:37;;;;;;;27.15;18.10;;;;;;;;;;5001906;28;20054;-85
2021/08/30 01:53:05;;;;;;;28.27;18.45;;;;;;;;;;5001949;28;20230;-84
2021/08/30 01:55:47;;;;;;;25.73;19.15;;;;;;;;;;5001214;28;20069;-85
2021/08/30 02:00:49;;;;;;;32.22;20.30;;;;;;;;;;4999849;28;20073;-85
2021/08/30 02:03:16;;;;;;;31.33;19.98;;;;;;;;;;4998590;28;20054;-85
2021/08/30 02:05:44;;;;;;;32.47;20.90;;;;;;;;;;4999410;28;20056;-84
2021/08/30 02:08:14;;;;;;;28.67;21.02;;;;;;;;;;5003850;28;20061;-84
2021/08/30 02:10:52;;;;;;;29.98;20.95;;;;;;;;;;5014750;28;20050;-84
2021/08/30 02:13:19;;;;;;;29.70;20.77;;;;;;;;;;5011271;28;20051;-85
2021/08/30 02:15:46;;;;;;;29.38;20.05;;;;;;;;;;5002221;28;20138;-84
2021/08/30 02:18:34;;;;;;;30.58;21.00;;;;;;;;;;5011922;28;20062;-85
2021/08/30 02:21:21;;;;;;;28.83;19.88;;;;;;;;;;5015049;28;20042;-84
2021/08/30 02:23:58;;;;;;;27.83;19.23;;;;;;;;;;5014047;28;20076;-84
2021/08/30 02:26:31;;;;;;;28.73;19.65;;;;;;;;;;5010575;28;20054;-84
2021/08/30 02:29:01;;;;;;;29.33;19.20;;;;;;;;;;5033114;28;20058;-84
2021/08/30 02:31:31;;;;;;;31.58;18.85;;;;;;;;;;5001688;28;20054;-84
2021/08/30 02:34:01;;;;;;;27.35;18.92;;;;;;;;;;5011466;28;20049;-84
2021/08/30 02:36:28;;;;;;;25.30;17.88;;;;;;;;;;5012229;28;20054;-84
2021/08/30 02:38:56;;;;;;;28.27;17.55;;;;;;;;;;4999235;28;20065;-84
2021/08/30 02:41:24;;;;;;;29.38;18.83;;;;;;;;;;5000451;28;20088;-85
2021/08/30 02:43:51;;;;;;;27.63;18.20;;;;;;;;;;5001463;28;20068;-84
2021/08/30 02:46:18;;;;;;;23.98;18.13;;;;;;;;;;5000011;28;20119;-84
2021/08/30 02:48:46;;;;;;;27.52;16.75;;;;;;;;;;5000262;28;20046;-85
2021/08/30 02:51:16;;;;;;;25.58;17.13;;;;;;;;;;4998752;28;20054;-85
2021/08/30 02:53:44;;;;;;;25.50;17.25;;;;;;;;;;5001999;28;20078;-85
2021/08/30 02:56:11;;;;;;;25.42;17.65;;;;;;;;;;4999230;28;20058;-85
2021/08/30 02:58:38;;;;;;;28.33;18.48;;;;;;;;;;4999499;28;20065;-84
2021/08/30 03:01:04;;;;;;;26.75;17.67;;;;;;;;;;5000558;28;20145;-85
2021/08/30 03:03:32;;;;;;;24.08;17.45;;;;;;;;;;5001342;28;20119;-85
2021/08/30 03:05:59;;;;;;;28.02;17.65;;;;;;;;;;5013270;28;20058;-85
2021/08/30 03:08:26;;;;;;;26.50;17.13;;;;;;;;;;5013048;28;20042;-85
2021/08/30 03:10:53;;;;;;;23.48;17.73;;;;;;;;;;5008501;28;20058;-85
2021/08/30 03:13:26;;;;;;;28.10;18.42;;;;;;;;;;4998203;28;20057;-85
2021/08/30 03:15:53;;;;;;;25.90;17.83;;;;;;;;;;5002375;28;20054;-85
2021/08/30 03:18:20;;;;;;;23.40;16.58;;;;;;;;;;5011115;28;20062;-85
2021/08/30 03:20:47;;;;;;;29.58;17.50;;;;;;;;;;5010532;28;20107;-85
2021/08/30 03:23:15;;;;;;;27.42;18.05;;;;;;;;;;5002923;28;20058;-85
2021/08/30 03:25:42;;;;;;;25.92;18.48;;;;;;;;;;5001108;28;20370;-85
2021/08/30 03:28:10;;;;;;;29.05;18.63;;;;;;;;;;4999769;28;20061;-85
2021/08/30 03:30:37;;;;;;;27.90;17.33;;;;;;;;;;4999731;28;20051;-84
2021/08/30 03:33:04;;;;;;;26.15;17.95;;;;;;;;;;4996954;28;20050;-85
2021/08/30 03:35:31;;;;;;;30.60;19.15;;;;;;;;;;4998519;28;20092;-84
2021/08/30 03:37:59;;;;;;;27.15;19.10;;;;;;;;;;5002721;28;20053;-84
2021/08/30 03:40:28;;;;;;;29.88;19.80;;;;;;;;;;5061756;28;20036;-84
2021/08/30 03:42:56;;;;;;;28.65;19.63;;;;;;;;;;5112157;28;20111;-85
2021/08/30 03:45:26;;;;;;;33.72;21.45;;;;;;;;;;5104351;28;20048;-85
2021/08/30 03:47:54;;;;;;;29.58;18.70;;;;;;;;;;5103678;28;20064;-85
2021/08/30 03:50:21;;;;;;;33.30;20.40;;;;;;;;;;5103181;28;20048;-85
2021/08/30 03:52:49;;;;;;;31.25;20.98;;;;;;;;;;5101158;28;20108;-85
2021/08/30 03:55:16;;;;;;;30.70;20.35;;;;;;;;;;5099681;28;20436;-85
2021/08/30 03:57:43;;;;;;;29.00;18.95;;;;;;;;;;5095664;28;20059;-84
2021/08/30 04:00:10;;;;;;;32.40;21.02;;;;;;;;;;5100183;28;20079;-85
2021/08/30 04:02:37;;;;;;;30.02;19.98;;;;;;;;;;5098048;28;20143;-84
2021/08/30 04:05:05;;;;;;;28.98;20.27;;;;;;;;;;5099638;28;20146;-84
2021/08/30 04:07:32;;;;;;;29.00;19.60;;;;;;;;;;5099598;28;20075;-84
2021/08/30 04:09:59;;;;;;;30.13;20.15;;;;;;;;;;5105945;28;20036;-85
2021/08/30 04:12:26;;;;;;;33.75;20.17;;;;;;;;;;5113234;28;20062;-84
2021/08/30 04:14:53;;;;;;;32.17;21.73;;;;;;;;;;5106869;28;20048;-85
2021/08/30 04:17:19;;;;;;;34.47;22.55;;;;;;;;;;5100988;28;20091;-86
2021/08/30 04:19:46;;;;;;;35.47;23.08;;;;;;;;;;5099314;28;20090;-84
2021/08/30 04:22:13;;;;;;;31.40;21.27;;;;;;;;;;5100881;28;20052;-83
2021/08/30 04:24:40;;;;;;;34.95;22.05;;;;;;;;;;5115026;28;20062;-84
2021/08/30 04:27:12;;;;;;;31.75;21.17;;;;;;;;;;5119715;28;20051;-84
2021/08/30 04:29:39;;;;;;;33.25;22.75;;;;;;;;;;5153489;27;20058;-84
2021/08/30 04:32:08;;;;;;;32.33;20.35;;;;;;;;;;5153842;27;20062;-84
2021/08/30 04:34:36;;;;;;;31.23;20.40;;;;;;;;;;5121000;28;20107;-84
2021/08/30 04:37:03;;;;;;;28.00;20.20;;;;;;;;;;5120135;28;20051;-84
2021/08/30 04:39:30;;;;;;;32.15;20.98;;;;;;;;;;5121211;28;20047;-85
2021/08/30 04:41:56;;;;;;;33.55;20.13;;;;;;;;;;5092589;27;20085;-83
2021/08/30 04:44:23;;;;;;;35.00;19.90;;;;;;;;;;5028324;28;20045;-85
2021/08/30 04:46:50;;;;;;;32.95;21.65;;;;;;;;;;5027426;28;20075;-85
2021/08/30 04:49:20;;;;;;;32.90;21.02;;;;;;;;;;5027016;28;20178;-85
2021/08/30 04:51:47;;;;;;;32.67;21.83;;;;;;;;;;5015811;28;20041;-85
2021/08/30 04:54:14;;;;;;;33.97;22.38;;;;;;;;;;5016381;28;20042;-85
2021/08/30 04:56:40;;;;;;;34.88;21.63;;;;;;;;;;5014966;28;20046;-86
2021/08/30 04:59:08;;;;;;;34.03;21.77;;;;;;;;;;5013963;28;20118;-85
2021/08/30 05:01:35;;;;;;;35.63;22.73;;;;;;;;;;5012150;28;20097;-83
2021/08/30 05:04:08;;;;;;;38.42;23.83;;;;;;;;;;5013332;28;20357;-84
2021/08/30 05:06:35;;;;;;;30.60;22.08;;;;;;;;;;5013962;28;20061;-84
2021/08/30 05:09:02;;;;;;;33.45;22.30;;;;;;;;;;5014343;28;20046;-84
2021/08/30 05:11:32;;;;;;;33.50;21.50;;;;;;;;;;5014513;28;20058;-86
2021/08/30 05:14:01;;;;;;;31.23;21.38;;;;;;;;;;5013966;28;20509;-84
2021/08/30 05:16:28;;;;;;;36.05;21.17;;;;;;;;;;5014314;28;20062;-85
2021/08/30 05:18:55;;;;;;;33.55;21.77;;;;;;;;;;5015489;28;20212;-84
2021/08/30 05:21:21;;;;;;;29.23;19.85;;;;;;;;;;5028609;28;20053;-84
2021/08/30 05:23:48;;;;;;;30.67;19.50;;;;;;;;;;5004610;28;20391;-83
2021/08/30 05:26:15;;;;;;;30.95;19.88;;;;;;;;;;4992453;28;20173;-83
2021/08/30 05:28:45;;;;;;;28.40;19.05;;;;;;;;;;4989985;28;20305;-83
2021/08/30 05:31:11;;;;;;;27.80;19.45;;;;;;;;;;4991515;28;20069;-83
2021/08/30 05:33:40;;;;;;;26.88;19.35;;;;;;;;;;4991321;28;20057;-82
2021/08/30 05:36:07;;;;;;;31.10;19.13;;;;;;;;;;4991209;28;20065;-83
2021/08/30 05:38:37;;;;;;;26.42;17.80;;;;;;;;;;4995240;28;20061;-82
2021/08/30 05:41:03;;;;;;;29.42;19.50;;;;;;;;;;5004759;28;20054;-83
2021/08/30 05:43:30;;;;;;;27.38;18.58;;;;;;;;;;5022764;27;20119;-83
2021/08/30 05:45:56;;;;;;;28.02;19.08;;;;;;;;;;5011370;28;20054;-83
2021/08/30 05:48:23;;;;;;;29.30;19.17;;;;;;;;;;5011663;28;20053;-83
2021/08/30 05:50:50;;;;;;;27.05;18.17;;;;;;;;;;5016748;28;20048;-82
2021/08/30 05:53:20;;;;;;;26.83;17.40;;;;;;;;;;5023732;28;20230;-83
2021/08/30 05:55:47;;;;;;;25.58;17.77;;;;;;;;;;5024440;28;20123;-83
2021/08/30 05:58:13;;;;;;;25.92;16.58;;;;;;;;;;5029577;27;20046;-83
2021/08/30 06:00:40;;;;;;;25.10;18.25;;;;;;;;;;5063071;27;20080;-83
2021/08/30 06:03:19;;;;;;;26.80;17.00;;;;;;;;;;5030361;28;20114;-82
2021/08/30 06:05:46;;;;;;;23.48;16.92;;;;;;;;;;5063173;28;20081;-84
2021/08/30 06:08:13;;;;;;;24.10;14.93;;;;;;;;;;5029295;28;20326;-82
2021/08/30 06:10:43;;;;;;;27.85;15.85;;;;;;;;;;5029846;28;20046;-83
2021/08/30 06:13:09;;;;;;;21.10;15.07;;;;;;;;;;4995529;28;20123;-82
2021/08/30 06:15:36;;;;;;;22.73;15.02;;;;;;;;;;5000453;28;20245;-84
2021/08/30 06:18:04;;;;;;;21.30;15.23;;;;;;;;;;4988328;28;20050;-83
2021/08/30 06:20:31;;;;;;;20.70;13.85;;;;;;;;;;5008597;28;20070;-83
2021/08/30 06:22:57;;;;;;;24.55;14.40;;;;;;;;;;5009337;28;20112;-83
2021/08/30 06:25:40;;;;;;;23.05;13.27;;;;;;;;;;5010358;28;20038;-84
2021/08/30 06:28:06;;;;;;;21.60;13.90;;;;;;;;;;5009041;28;20430;-83
2021/08/30 06:30:34;;;;;;;18.50;13.52;;;;;;;;;;5019825;28;20441;-83
2021/08/30 06:33:04;;;;;;;22.27;13.43;;;;;;;;;;5021735;28;20054;-84
2021/08/30 06:35:31;;;;;;;19.48;13.63;;;;;;;;;;5043011;28;20071;-83
2021/08/30 06:37:59;;;;;;;18.70;12.75;;;;;;;;;;5126626;28;20044;-83
2021/08/30 06:40:25;;;;;;;19.45;12.23;;;;;;;;;;5119487;28;20066;-83
2021/08/30 06:42:52;;;;;;;23.92;13.02;;;;;;;;;;5115226;27;20290;-83
2021/08/30 06:45:22;;;;;;;21.58;12.32;;;;;;;;;;5114873;28;20047;-83
2021/08/30 06:47:50;;;;;;;18.98;12.55;;;;;;;;;;5117545;28;20061;-82
2021/08/30 06:50:20;;;;;;;17.27;12.27;;;;;;;;;;5114478;28;20047;-83
2021/08/30 06:52:47;;;;;;;22.48;13.45;;;;;;;;;;5125703;28;20039;-84
2021/08/30 06:55:14;;;;;;;18.15;11.68;;;;;;;;;;5111484;28;20055;-83
2021/08/30 06:57:42;;;;;;;19.35;12.98;;;;;;;;;;5013374;28;20149;-82
2021/08/30 07:00:11;;;;;;;15.30;11.35;;;;;;;;;;5014088;28;20118;-84
2021/08/30 07:02:38;;;;;;;17.30;12.32;;;;;;;;;;5017120;28;20042;-82
2021/08/30 07:05:05;;;;;;;18.85;11.70;;;;;;;;;;5015548;28;20042;-83
2021/08/30 07:07:38;;;;;;;21.27;11.70;;;;;;;;;;5020237;28;20085;-83
2021/08/30 07:10:05;;;;;;;17.80;12.57;;;;;;;;;;5018956;28;20168;-83
2021/08/30 07:12:32;;;;;;;14.68;10.63;;;;;;;;;;5015291;28;20045;-83
2021/08/30 07:15:02;;;;;;;16.50;11.05;;;;;;;;;;5013456;28;20118;-83
2021/08/30 07:17:29;;;;;;;18.13;11.27;;;;;;;;;;5013379;28;20119;-83
2021/08/30 07:19:56;;;;;;;16.60;10.85;;;;;;;;;;5010618;28;20156;-82
2021/08/30 07:22:23;;;;;;;17.88;11.65;;;;;;;;;;5031757;28;20111;-83
2021/08/30 07:24:49;;;;;;;14.57;10.52;;;;;;;;;;4994238;28;20070;-83
2021/08/30 07:27:16;;;;;;;15.27;10.88;;;;;;;;;;4992927;28;20060;-83
2021/08/30 07:29:43;;;;;;;15.60;10.68;;;;;;;;;;4993032;28;20054;-83
2021/08/30 07:32:10;;;;;;;15.93;10.57;;;;;;;;;;4994215;28;20053;-86
2021/08/30 07:34:36;;;;;;;18.98;10.40;;;;;;;;;;5006054;28;20056;-87
2021/08/30 07:37:04;;;;;;;18.90;10.32;;;;;;;;;;5006435;28;20095;-86
2021/08/30 07:39:31;;;;;;;18.27;10.73;;;;;;;;;;4994780;28;20090;-86
2021/08/30 07:41:57;;;;;;;18.30;10.43;;;;;;;;;;5005432;28;20333;-86
2021/08/30 07:44:24;;;;;;;14.70;10.32;;;;;;;;;;5097342;28;20237;-86
2021/08/30 07:46:54;;;;;;;17.85;9.82;;;;;;;;;;5098889;28;20054;-86
2021/08/30 07:49:21;;;;;;;15.50;9.75;;;;;;;;;;5098849;28;20071;-88
2021/08/30 07:51:48;;;;;;;15.60;10.10;;;;;;;;;;5105077;28;20123;-88
2021/08/30 07:54:17;;;;;;;15.70;9.68;;;;;;;;;;5074488;28;20035;-85
2021/08/30 07:56:44;;;;;;;19.35;9.27;;;;;;;;;;5008007;28;20193;-85
2021/08/30 07:59:11;;;;;;;13.30;9.05;;;;;;;;;;4996856;28;20448;-86
2021/08/30 08:01:38;;;;;;;13.20;9.77;;;;;;;;;;5000265;28;20046;-86
2021/08/30 08:04:05;;;;;;;15.13;10.18;;;;;;;;;;4999853;28;20042;-87
2021/08/30 08:06:35;;;;;;;14.20;9.20;;;;;;;;;;5000728;28;20193;-85
2021/08/30 08:09:02;;;;;;;13.32;9.15;;;;;;;;;;5001431;28;20144;-87
2021/08/30 08:11:29;;;;;;;15.40;9.77;;;;;;;;;;4999116;28;20050;-86
2021/08/30 08:13:55;;;;;;;13.32;9.55;;;;;;;;;;5013120;28;20050;-86
2021/08/30 08:16:25;;;;;;;15.45;9.77;;;;;;;;;;5015253;28;20522;-86
2021/08/30 08:18:53;;;;;;;14.55;9.05;;;;;;;;;;5020497;28;20109;-86
2021/08/30 08:21:23;;;;;;;20.92;8.98;;;;;;;;;;5016091;28;20546;-86
2021/08/30 08:23:50;;;;;;;12.57;9.55;;;;;;;;;;5023045;28;20077;-87
2021/08/30 08:26:16;;;;;;;15.50;8.68;;;;;;;;;;5035415;28;20084;-88
2021/08/30 08:28:43;;;;;;;13.75;8.02;;;;;;;;;;5037436;28;20046;-88
2021/08/30 08:31:13;;;;;;;13.52;8.65;;;;;;;;;;5049047;27;20079;-88
2021/08/30 08:33:44;;;;;;;12.45;8.38;;;;;;;;;;5052350;27;20061;-86
2021/08/30 08:36:15;;;;;;;14.48;8.38;;;;;;;;;;5044155;27;20315;-86
2021/08/30 08:38:42;;;;;;;15.10;8.02;;;;;;;;;;5049969;28;20061;-87
2021/08/30 08:41:09;;;;;;;13.30;7.57;;;;;;;;;;5048720;28;20048;-86
2021/08/30 08:43:38;;;;;;;10.15;7.97;;;;;;;;;;5032092;28;20063;-86
2021/08/30 08:46:07;;;;;;;11.77;7.93;;;;;;;;;;5033156;28;20057;-86
2021/08/30 08:48:37;;;;;;;10.75;7.13;;;;;;;;;;5014839;28;20054;-85
2021/08/30 08:51:04;;;;;;;11.30;6.85;;;;;;;;;;5040603;28;20106;-86
2021/08/30 08:53:31;;;;;;;12.80;7.63;;;;;;;;;;5026888;27;20058;-85
2021/08/30 08:55:57;;;;;;;11.15;6.70;;;;;;;;;;5052003;27;20058;-86
2021/08/30 08:58:24;;;;;;;10.43;6.70;;;;;;;;;;5025598;27;20109;-87
2021/08/30 09:01:12;;;;;;;11.65;6.65;;;;;;;;;;5052995;28;20053;-87
2021/08/30 09:03:46;;;;;;;12.18;7.00;;;;;;;;;;5112824;28;20051;-85
2021/08/30 09:06:23;;;;;;;9.25;6.97;;;;;;;;;;5114151;28;20051;-86
2021/08/30 09:08:52;;;;;;;10.95;7.25;;;;;;;;;;5126708;28;20070;-86
2021/08/30 09:11:20;;;;;;;10.18;6.30;;;;;;;;;;5123313;28;20047;-87
2021/08/30 09:13:51;;;;;;;11.40;7.00;;;;;;;;;;5109979;28;20055;-86
2021/08/30 09:16:22;;;;;;;8.95;6.63;;;;;;;;;;5095551;28;20429;-86
2021/08/30 09:18:49;;;;;;;11.32;6.60;;;;;;;;;;4989203;28;20058;-85
2021/08/30 09:21:17;;;;;;;11.45;6.60;;;;;;;;;;4997150;28;20068;-86
2021/08/30 09:23:44;;;;;;;8.90;6.43;;;;;;;;;;5010690;28;20064;-86
2021/08/30 09:26:14;;;;;;;9.82;5.90;;;;;;;;;;5012596;28;20046;-85
2021/08/30 09:28:43;;;;;;;11.35;6.40;;;;;;;;;;5028869;28;20053;-86
2021/08/30 09:31:10;;;;;;;15.63;6.50;;;;;;;;;;5055564;27;20042;-86
2021/08/30 09:33:46;;;;;;;8.82;6.22;;;;;;;;;;5015778;27;20054;-86
2021/08/30 09:36:13;;;;;;;7.68;6.35;;;;;;;;;;5008341;28;20050;-85
2021/08/30 09:38:39;;;;;;;11.73;5.93;;;;;;;;;;5010426;28;20060;-85
2021/08/30 09:41:08;;;;;;;6.05;5.18;;;;;;;;;;5006776;28;20042;-86
2021/08/30 09:43:35;;;;;;;11.75;5.68;;;;;;;;;;5005091;28;20194;-86
2021/08/30 09:46:04;;;;;;;9.85;5.68;;;;;;;;;;5014612;28;20060;-86
2021/08/30 09:48:38;;;;;;;10.10;6.15;;;;;;;;;;5066770;28;20053;-86
2021/08/30 09:51:05;;;;;;;8.38;6.13;;;;;;;;;;5112501;28;20176;-86
2021/08/30 09:53:34;;;;;;;8.20;5.60;;;;;;;;;;5114786;28;20423;-86
2021/08/30 09:56:02;;;;;;;9.45;6.03;;;;;;;;;;5115109;28;20050;-85
2021/08/30 09:58:35;;;;;;;8.75;5.95;;;;;;;;;;5049583;28;20107;-86
2021/08/30 10:01:02;;;;;;;10.32;6.10;;;;;;;;;;5029944;28;20050;-86
2021/08/30 10:03:39;;;;;;;13.23;6.20;;;;;;;;;;5041252;28;20045;-86
2021/08/30 10:06:07;;;;;;;14.50;7.15;;;;;;;;;;5045984;27;20318;-86
2021/08/30 10:08:38;;;;;;;9.70;6.05;;;;;;;;;;5032391;28;20348;-86
2021/08/30 10:11:09;;;;;;;8.05;5.60;;;;;;;;;;5010332;28;20165;-85
2021/08/30 10:13:45;;;;;;;10.60;5.45;;;;;;;;;;5012620;28;20326;-86
2021/08/30 10:16:12;;;;;;;8.25;5.65;;;;;;;;;;5042155;28;20073;-86
2021/08/30 10:18:49;;;;;;;7.88;5.05;;;;;;;;;;5014388;28;20053;-87
2021/08/30 10:21:16;;;;;;;9.70;5.45;;;;;;;;;;5038489;28;20156;-87
2021/08/30 10:23:45;;;;;;;7.68;5.00;;;;;;;;;;5056470;28;20061;-87
2021/08/30 10:26:12;;;;;;;8.73;5.35;;;;;;;;;;5015199;28;20050;-86
2021/08/30 10:28:55;;;;;;;8.85;5.38;;;;;;;;;;5047258;28;20292;-86
2021/08/30 10:31:25;;;;;;;6.13;4.75;;;;;;;;;;5012047;28;20085;-86
2021/08/30 10:33:53;;;;;;;5.57;4.57;;;;;;;;;;5010948;28;20050;-85
2021/08/30 10:36:21;;;;;;;6.90;5.03;;;;;;;;;;5011583;28;20126;-86
2021/08/30 10:38:58;;;;;;;6.90;4.53;;;;;;;;;;5010352;28;20285;-86
2021/08/30 10:41:32;;;;;;;6.55;4.78;;;;;;;;;;5013801;28;20418;-86
2021/08/30 10:44:11;;;;;;;8.97;5.20;;;;;;;;;;5012221;28;20050;-87
2021/08/30 10:46:39;;;;;;;6.95;5.00;;;;;;;;;;5043174;28;20082;-88
2021/08/30 10:49:32;;;;;;;7.90;5.18;;;;;;;;;;5023565;28;20074;-86
2021/08/30 10:52:10;;;;;;;9.50;5.57;;;;;;;;;;5066278;28;20397;-87
2021/08/30 10:54:52;;;;;;;9.77;5.60;;;;;;;;;;5040213;28;20033;-86
2021/08/30 10:57:32;;;;;;;8.18;4.80;;;;;;;;;;5026089;28;20166;-86
2021/08/30 10:59:59;;;;;;;6.38;4.60;;;;;;;;;;5009022;28;20376;-86
2021/08/30 11:02:39;;;;;;;6.43;4.35;;;;;;;;;;5014209;28;20061;-86
2021/08/30 11:05:07;;;;;;;7.25;4.90;;;;;;;;;;5014105;28;20367;-87
2021/08/30 11:07:35;;;;;;;8.38;4.72;;;;;;;;;;5014045;28;20045;-88
2021/08/30 11:10:03;;;;;;;7.47;4.43;;;;;;;;;;5014328;28;20046;-86
2021/08/30 11:12:30;;;;;;;8.35;5.00;;;;;;;;;;5014191;28;20220;-87
2021/08/30 11:14:58;;;;;;;6.35;4.65;;;;;;;;;;5017283;28;20222;-87
2021/08/30 11:17:25;;;;;;;7.00;4.60;;;;;;;;;;5018094;28;20371;-88
2021/08/30 11:19:53;;;;;;;8.73;4.65;;;;;;;;;;5017189;28;20118;-87
2021/08/30 11:22:20;;;;;;;5.90;4.43;;;;;;;;;;5013331;28;20121;-87
2021/08/30 11:24:46;;;;;;;7.13;4.70;;;;;;;;;;5015085;28;20161;-86
2021/08/30 11:27:16;;;;;;;6.13;4.95;;;;;;;;;;5012851;28;20046;-87
2021/08/30 11:29:54;;;;;;;10.40;5.32;;;;;;;;;;5011956;28;20149;-87
2021/08/30 11:32:22;;;;;;;7.60;5.40;;;;;;;;;;5011660;28;20114;-86
2021/08/30 11:34:49;;;;;;;6.68;4.57;;;;;;;;;;5021105;28;20044;-87
2021/08/30 11:37:24;;;;;;;7.28;4.85;;;;;;;;;;5024860;28;20054;-87
2021/08/30 11:39:52;;;;;;;7.72;4.72;;;;;;;;;;5022920;28;20242;-86
2021/08/30 11:42:23;;;;;;;6.80;4.25;;;;;;;;;;5023509;28;20054;-87
2021/08/30 11:44:50;;;;;;;6.95;5.00;;;;;;;;;;5016953;28;20042;-84
2021/08/30 11:47:18;;;;;;;7.35;4.72;;;;;;;;;;5123616;28;20063;-86
2021/08/30 11:49:47;;;;;;;6.28;4.53;;;;;;;;;;5116515;28;20075;-87
2021/08/30 11:52:14;;;;;;;7.45;4.90;;;;;;;;;;5092529;28;20067;-87
2021/08/30 11:54:45;;;;;;;8.38;5.40;;;;;;;;;;5023630;28;20257;-87
2021/08/30 11:57:13;;;;;;;7.85;4.85;;;;;;;;;;5017505;27;20299;-87
2021/08/30 11:59:46;;;;;;;9.80;5.22;;;;;;;;;;5015835;28;20088;-86
2021/08/30 12:02:17;;;;;;;7.72;4.85;;;;;;;;;;5011525;28;20073;-87
2021/08/30 12:04:46;;;;;;;10.77;5.18;;;;;;;;;;5013411;28;20068;-87
2021/08/30 12:07:16;;;;;;;10.90;5.80;;;;;;;;;;5019925;28;20101;-87
2021/08/30 12:09:51;;;;;;;8.45;5.05;;;;;;;;;;5026192;28;20033;-87
2021/08/30 12:12:23;;;;;;;8.35;5.68;;;;;;;;;;5024732;27;20041;-86
2021/08/30 12:15:13;;;;;;;9.98;5.00;;;;;;;;;;5023295;27;20076;-88
2021/08/30 12:17:50;;;;;;;8.50;5.18;;;;;;;;;;5015758;28;20064;-86
2021/08/30 12:20:30;;;;;;;8.35;5.38;;;;;;;;;;4999562;28;20195;-86
2021/08/30 12:22:58;;;;;;;8.45;4.50;;;;;;;;;;5034976;28;20218;-87
2021/08/30 12:25:29;;;;;;;7.70;4.80;;;;;;;;;;4984531;28;20051;-86
2021/08/30 12:27:56;;;;;;;7.57;4.55;;;;;;;;;;4975917;28;20493;-87
2021/08/30 12:30:53;;;;;;;9.82;5.45;;;;;;;;;;4975156;28;20104;-86
2021/08/30 12:33:20;;;;;;;6.78;4.40;;;;;;;;;;4972348;28;20062;-89
2021/08/30 12:36:01;;;;;;;9.80;4.50;;;;;;;;;;4971729;28;20047;-87
2021/08/30 12:38:29;;;;;;;8.75;5.15;;;;;;;;;;4973464;28;20061;-86
2021/08/30 12:40:57;;;;;;;5.93;3.95;;;;;;;;;;4972892;28;20143;-86
2021/08/30 12:43:24;;;;;;;9.77;4.50;;;;;;;;;;4983753;28;20417;-86
2021/08/30 12:45:51;;;;;;;7.25;4.75;;;;;;;;;;4993974;28;20066;-87
2021/08/30 12:48:18;;;;;;;10.18;4.15;;;;;;;;;;4980172;28;20059;-87
2021/08/30 12:50:45;;;;;;;11.85;5.00;;;;;;;;;;4990171;28;20042;-85
2021/08/30 12:53:19;;;;;;;8.65;5.10;;;;;;;;;;4992464;28;20051;-87
2021/08/30 12:55:46;;;;;;;12.35;4.90;;;;;;;;;;4992020;28;20058;-87
2021/08/30 12:58:15;;;;;;;6.68;4.82;;;;;;;;;;4991441;28;20050;-87
2021/08/30 13:00:48;;;;;;;8.10;4.68;;;;;;;;;;4993956;28;20144;-87
2021/08/30 13:03:15;;;;;;;7.28;4.60;;;;;;;;;;4994185;28;20270;-87
2021/08/30 13:05:42;;;;;;;9.38;4.82;;;;;;;;;;4999466;28;20516;-87
2021/08/30 13:08:10;;;;;;;6.78;4.53;;;;;;;;;;5004994;28;20052;-86
2021/08/30 13:10:38;;;;;;;7.32;4.65;;;;;;;;;;5005889;28;20077;-87
2021/08/30 13:13:08;;;;;;;8.27;4.57;;;;;;;;;;4995550;28;20054;-86
2021/08/30 13:15:35;;;;;;;7.60;4.63;;;;;;;;;;4993123;28;20054;-86
2021/08/30 13:18:05;;;;;;;8.13;4.65;;;;;;;;;;4992853;28;20085;-86
2021/08/30 13:20:42;;;;;;;10.00;4.45;;;;;;;;;;4992626;28;20047;-88
2021/08/30 13:23:09;;;;;;;7.72;4.75;;;;;;;;;;4972478;28;20251;-87
2021/08/30 13:25:37;;;;;;;11.50;5.50;;;;;;;;;;4980111;28;20144;-87
2021/08/30 13:28:04;;;;;;;7.28;4.32;;;;;;;;;;4997525;28;20050;-88
2021/08/30 13:30:31;;;;;;;7.60;4.18;;;;;;;;;;5051430;28;20321;-88
2021/08/30 13:33:00;;;;;;;7.10;4.15;;;;;;;;;;5096271;28;20050;-86
2021/08/30 13:35:30;;;;;;;12.57;4.55;;;;;;;;;;5062101;28;20054;-87
2021/08/30 13:37:59;;;;;;;11.27;3.92;;;;;;;;;;5004350;28;20055;-87
2021/08/30 13:40:27;;;;;;;8.35;4.05;;;;;;;;;;5009879;28;20180;-87
2021/08/30 13:42:54;;;;;;;7.88;4.30;;;;;;;;;;5009886;28;20066;-87
2021/08/30 13:45:22;;;;;;;5.22;3.70;;;;;;;;;;5015795;28;20051;-87
2021/08/30 13:47:49;;;;;;;6.30;4.13;;;;;;;;;;5011385;28;20584;-87
2021/08/30 13:50:26;;;;;;;7.85;4.07;;;;;;;;;;4977667;28;20093;-86
2021/08/30 13:52:54;;;;;;;7.05;4.13;;;;;;;;;;4990886;28;20046;-87
2021/08/30 13:55:21;;;;;;;9.30;4.00;;;;;;;;;;5088164;28;20151;-87
2021/08/30 13:57:48;;;;;;;7.20;4.63;;;;;;;;;;5096763;28;20251;-86
2021/08/30 14:00:15;;;;;;;8.93;4.43;;;;;;;;;;5059605;28;20050;-86
2021/08/30 14:02:42;;;;;;;9.55;4.88;;;;;;;;;;5016067;28;20043;-86
2021/08/30 14:05:24;;;;;;;7.20;4.40;;;;;;;;;;4974718;28;20163;-87
2021/08/30 14:07:54;;;;;;;7.20;4.13;;;;;;;;;;4977549;28;20205;-87
2021/08/30 14:10:21;;;;;;;7.95;4.35;;;;;;;;;;4993079;28;20497;-87
2021/08/30 14:12:48;;;;;;;5.95;4.10;;;;;;;;;;4994347;28;20069;-87
2021/08/30 14:15:15;;;;;;;9.25;4.30;;;;;;;;;;4991762;28;20081;-87
2021/08/30 14:17:44;;;;;;;7.53;5.03;;;;;;;;;;4974606;28;20159;-87
2021/08/30 14:20:12;;;;;;;6.80;4.47;;;;;;;;;;4973084;28;20061;-86
2021/08/30 14:22:43;;;;;;;6.80;4.55;;;;;;;;;;4988041;28;20235;-88
2021/08/30 14:25:13;;;;;;;7.57;4.30;;;;;;;;;;5013890;28;20058;-86
2021/08/30 14:27:41;;;;;;;5.78;4.70;;;;;;;;;;5007266;28;20103;-87
2021/08/30 14:30:10;;;;;;;5.00;4.25;;;;;;;;;;4998920;28;20133;-87
2021/08/30 14:32:36;;;;;;;6.50;4.38;;;;;;;;;;4992749;28;20080;-87
2021/08/30 14:35:21;;;;;;;7.93;4.28;;;;;;;;;;4993988;28;20054;-87
2021/08/30 14:37:50;;;;;;;4.95;4.05;;;;;;;;;;5001288;28;20165;-87
2021/08/30 14:40:20;;;;;;;14.95;4.60;;;;;;;;;;5019465;28;20050;-86